Time;durP1;ratioP1;P1;durP2;ratioP2;P2;SDS_P1;SDS_P2;PMS_P1;PMS_P2;Temp;Humidity;BMP_temperature;BMP_pressure;BME280_temperature;BME280_humidity;BME280_pressure;Samples;Min_cycle;Max_cycle;Signal;HPM_P1;HPM_P2
2021/11/30 00:00:34;;;;;;;8.48;2.53;;;22.10;51.10;;;;;;5196803;28;20052;-72
2021/11/30 00:03:06;;;;;;;3.92;2.40;;;22.10;51.10;;;;;;5197179;28;20393;-72
2021/11/30 00:05:39;;;;;;;5.93;2.10;;;22.00;51.00;;;;;;5197327;28;20045;-71
2021/11/30 00:08:13;;;;;;;7.15;2.17;;;22.00;51.00;;;;;;5196868;28;20045;-73
2021/11/30 00:13:19;;;;;;;4.80;1.90;;;22.00;51.00;;;;;;5198010;28;20064;-72
2021/11/30 00:15:53;;;;;;;6.65;1.90;;;22.00;51.00;;;;;;5174506;28;20044;-73
2021/11/30 00:18:26;;;;;;;;;;;22.00;51.00;;;;;;5196193;28;20049;-72
2021/11/30 00:21:05;;;;;;;7.22;1.92;;;22.00;51.00;;;;;;5192605;28;19924;-72
2021/11/30 00:23:38;;;;;;;5.85;1.83;;;22.00;51.00;;;;;;5199543;28;20057;-70
2021/11/30 00:26:10;;;;;;;4.50;1.88;;;22.00;51.00;;;;;;5199785;28;20045;-71
2021/11/30 00:28:43;;;;;;;3.60;1.90;;;22.00;51.10;;;;;;5199534;28;21171;-71
2021/11/30 00:31:15;;;;;;;4.25;2.28;;;22.00;51.10;;;;;;5201367;28;20123;-69
2021/11/30 00:33:48;;;;;;;6.15;2.10;;;22.00;51.20;;;;;;5202258;28;20040;-70
2021/11/30 00:36:20;;;;;;;4.50;2.00;;;22.00;51.10;;;;;;5200018;28;20068;-72
2021/11/30 00:38:53;;;;;;;6.47;2.03;;;22.00;51.20;;;;;;5206097;28;20416;-72
2021/11/30 00:41:25;;;;;;;3.90;1.80;;;22.00;51.20;;;;;;5196680;28;20053;-71
2021/11/30 00:43:58;;;;;;;8.38;2.20;;;22.00;51.20;;;;;;5190000;28;20040;-71
2021/11/30 00:46:35;;;;;;;7.57;2.08;;;22.00;51.10;;;;;;5197882;28;20045;-72
2021/11/30 00:49:08;;;;;;;4.22;1.92;;;22.00;51.20;;;;;;5198320;28;20037;-71
2021/11/30 00:51:43;;;;;;;5.18;1.55;;;22.00;51.10;;;;;;5192143;28;21298;-73
2021/11/30 00:54:17;;;;;;;3.90;1.85;;;22.00;51.10;;;;;;5200649;28;20387;-71
2021/11/30 00:56:51;;;;;;;5.90;1.83;;;22.00;51.10;;;;;;5199600;28;20041;-71
2021/11/30 00:59:27;;;;;;;8.25;2.30;;;22.00;51.10;;;;;;5197980;28;20052;-70
2021/11/30 01:02:00;;;;;;;6.55;1.65;;;22.00;51.10;;;;;;5185960;28;20041;-71
2021/11/30 01:04:33;;;;;;;4.32;1.85;;;22.00;51.30;;;;;;5200429;28;20045;-71
2021/11/30 01:07:09;;;;;;;4.25;2.00;;;22.00;51.20;;;;;;5198745;28;20408;-71
2021/11/30 01:09:42;;;;;;;5.80;2.08;;;22.00;51.20;;;;;;5200372;28;20655;-69
2021/11/30 01:12:14;;;;;;;3.70;1.85;;;22.00;51.30;;;;;;5200483;28;20049;-69
2021/11/30 01:14:47;;;;;;;5.57;1.85;;;22.00;51.20;;;;;;5196109;28;20047;-69
2021/11/30 01:17:19;;;;;;;4.32;1.75;;;22.00;51.20;;;;;;5195794;28;20056;-68
2021/11/30 01:19:52;;;;;;;3.58;1.60;;;22.00;51.20;;;;;;5192707;28;20052;-70
2021/11/30 01:22:24;;;;;;;6.87;1.87;;;22.00;51.10;;;;;;5201237;28;20045;-71
2021/11/30 01:24:56;;;;;;;2.97;1.70;;;22.00;51.10;;;;;;5200080;28;20064;-70
2021/11/30 01:27:29;;;;;;;5.07;1.40;;;22.00;51.10;;;;;;5194318;28;20033;-71
2021/11/30 01:30:02;;;;;;;2.40;1.30;;;22.00;51.10;;;;;;5196370;28;20041;-71
2021/11/30 01:32:35;;;;;;;3.35;1.60;;;22.00;51.10;;;;;;5191695;28;20052;-71
2021/11/30 01:35:09;;;;;;;3.13;1.40;;;22.00;51.10;;;;;;5198005;28;20587;-72
2021/11/30 01:37:43;;;;;;;6.03;1.58;;;22.00;51.70;;;;;;5201709;28;20033;-72
2021/11/30 01:40:19;;;;;;;6.63;1.45;;;22.00;51.00;;;;;;5201850;28;20045;-72
2021/11/30 01:42:53;;;;;;;4.00;1.45;;;22.00;51.00;;;;;;5197584;28;20041;-70
2021/11/30 01:50:59;;;;;;;3.00;1.45;;;21.90;50.90;;;;;;5197436;28;20051;-72
2021/11/30 01:53:31;;;;;;;5.28;1.20;;;22.00;50.90;;;;;;5192015;28;20046;-72
2021/11/30 01:56:04;;;;;;;3.05;1.50;;;22.00;51.00;;;;;;5192053;28;20048;-71
2021/11/30 01:58:36;;;;;;;2.88;1.30;;;21.90;50.80;;;;;;5199100;28;20052;-73
2021/11/30 02:01:09;;;;;;;2.67;1.17;;;22.00;50.90;;;;;;5185134;28;20085;-74
2021/11/30 02:03:42;;;;;;;2.17;1.08;;;21.90;50.80;;;;;;5174967;28;20049;-74
2021/11/30 02:06:15;;;;;;;1.75;0.98;;;21.90;50.80;;;;;;5170163;28;20044;-72
2021/11/30 02:08:47;;;;;;;2.90;1.17;;;21.90;50.80;;;;;;5169065;28;20049;-74
2021/11/30 02:11:20;;;;;;;3.65;1.30;;;21.90;50.80;;;;;;5174594;28;20045;-73
2021/11/30 02:13:52;;;;;;;3.42;1.20;;;21.90;50.80;;;;;;5170762;28;21338;-72
2021/11/30 02:16:25;;;;;;;2.40;1.30;;;21.90;51.40;;;;;;5155210;28;20053;-73
2021/11/30 02:19:00;;;;;;;2.35;1.20;;;21.90;50.90;;;;;;5168442;28;21958;-72
2021/11/30 02:21:40;;;;;;;1.95;1.33;;;21.90;50.80;;;;;;5170942;28;20070;-72
2021/11/30 02:24:13;;;;;;;3.10;1.50;;;21.90;50.80;;;;;;5169178;28;20053;-70
2021/11/30 02:26:45;;;;;;;5.18;1.63;;;21.90;50.80;;;;;;5169605;28;20045;-71
2021/11/30 02:29:17;;;;;;;2.35;1.02;;;21.90;50.80;;;;;;5167281;28;20764;-72
2021/11/30 02:31:50;;;;;;;3.20;1.20;;;21.90;50.80;;;;;;5162220;28;20554;-72
2021/11/30 02:34:22;;;;;;;2.83;1.42;;;21.90;50.70;;;;;;5163400;28;20041;-73
2021/11/30 02:37:03;;;;;;;17.23;1.50;;;21.90;50.70;;;;;;5165581;28;20413;-72
2021/11/30 02:39:36;;;;;;;4.18;1.48;;;21.90;50.80;;;;;;5175570;28;20602;-73
2021/11/30 02:42:09;;;;;;;2.80;1.20;;;21.90;50.80;;;;;;5174304;28;20667;-72
2021/11/30 02:44:43;;;;;;;2.45;1.13;;;21.90;50.70;;;;;;5174071;28;20892;-72
2021/11/30 02:47:15;;;;;;;10.05;1.20;;;21.90;50.80;;;;;;5179262;28;20510;-74
2021/11/30 02:49:47;;;;;;;6.70;1.50;;;21.90;50.90;;;;;;5173044;28;20053;-71
2021/11/30 02:52:20;;;;;;;3.22;1.02;;;21.90;50.90;;;;;;5150896;28;20041;-71
2021/11/30 02:54:53;;;;;;;1.88;1.08;;;21.90;50.80;;;;;;5174098;28;20489;-74
2021/11/30 02:57:26;;;;;;;2.08;1.00;;;21.90;50.80;;;;;;5169773;28;20045;-69
2021/11/30 02:59:59;;;;;;;8.70;1.25;;;21.90;50.80;;;;;;5168321;28;20135;-73
2021/11/30 03:02:32;;;;;;;7.22;1.20;;;21.80;50.80;;;;;;5176912;28;25569;-72
2021/11/30 03:05:06;;;;;;;3.60;1.40;;;21.90;50.90;;;;;;5199751;28;20045;-72
2021/11/30 03:07:39;;;;;;;2.63;1.30;;;21.90;50.90;;;;;;5201093;28;20620;-69
2021/11/30 03:10:19;;;;;;;4.60;1.20;;;21.90;50.90;;;;;;5190926;28;20045;-72
2021/11/30 03:12:52;;;;;;;1.85;0.95;;;21.90;50.90;;;;;;5192284;28;20515;-71
2021/11/30 03:15:25;;;;;;;;;;;21.90;50.90;;;;;;5192990;28;20037;-71
2021/11/30 03:17:58;;;;;;;4.40;1.10;;;21.80;50.90;;;;;;5178769;28;19925;-72
2021/11/30 03:20:30;;;;;;;2.50;1.00;;;21.80;50.90;;;;;;5191284;28;20046;-72
2021/11/30 03:23:03;;;;;;;5.20;1.02;;;21.80;51.00;;;;;;5202032;28;20329;-72
2021/11/30 03:25:35;;;;;;;5.88;1.20;;;21.80;51.00;;;;;;5195322;28;20049;-71
2021/11/30 03:28:08;;;;;;;6.72;1.67;;;21.80;51.00;;;;;;5201176;28;20049;-70
2021/11/30 03:30:52;;;;;;;3.28;1.27;;;21.90;51.00;;;;;;5194138;28;20041;-73
2021/11/30 03:36:16;;;;;;;5.15;0.90;;;21.80;51.20;;;;;;5195754;28;20049;-71
2021/11/30 03:38:48;;;;;;;4.05;1.00;;;21.80;50.90;;;;;;5185089;28;20041;-72
2021/11/30 03:41:21;;;;;;;2.97;1.20;;;21.80;50.90;;;;;;5197209;28;20056;-72
2021/11/30 03:43:53;;;;;;;3.53;1.00;;;21.80;50.90;;;;;;5174821;28;20049;-72
2021/11/30 03:46:26;;;;;;;3.58;1.10;;;21.80;50.90;;;;;;5199878;28;20048;-71
2021/11/30 03:48:59;;;;;;;1.93;1.00;;;21.80;50.80;;;;;;5185567;28;21217;-72
2021/11/30 03:51:32;;;;;;;1.92;0.98;;;21.80;50.80;;;;;;5190851;28;20584;-72
2021/11/30 03:54:06;;;;;;;2.03;1.00;;;21.80;50.90;;;;;;5184797;28;20051;-73
2021/11/30 03:56:39;;;;;;;2.22;1.10;;;21.80;51.00;;;;;;5184467;28;20071;-73
2021/11/30 03:59:12;;;;;;;4.05;1.05;;;21.80;51.00;;;;;;5189189;28;20053;-74
2021/11/30 04:01:45;;;;;;;1.73;0.73;;;21.80;51.00;;;;;;5190276;28;20036;-74
2021/11/30 04:04:22;;;;;;;2.33;0.80;;;21.80;51.20;;;;;;5184403;28;20830;-74
2021/11/30 04:06:56;;;;;;;2.03;1.20;;;21.80;51.10;;;;;;5179440;28;20044;-73
2021/11/30 04:09:28;;;;;;;;;;;21.80;51.20;;;;;;5189452;28;20041;-74
2021/11/30 04:12:01;;;;;;;1.77;0.85;;;21.70;51.30;;;;;;5182724;28;19943;-73
2021/11/30 04:14:34;;;;;;;6.50;1.17;;;21.70;51.30;;;;;;5179910;28;20508;-74
2021/11/30 04:17:06;;;;;;;3.63;0.82;;;21.70;51.40;;;;;;5175734;28;20052;-74
2021/11/30 04:19:39;;;;;;;2.20;0.90;;;21.80;51.50;;;;;;5183528;28;20053;-74
2021/11/30 04:22:11;;;;;;;2.13;0.77;;;21.80;51.40;;;;;;5191990;28;20332;-73
2021/11/30 04:24:43;;;;;;;5.43;0.90;;;21.80;51.60;;;;;;5200041;28;20439;-71
2021/11/30 04:27:16;;;;;;;4.03;1.20;;;21.80;51.60;;;;;;5193902;28;20049;-72
2021/11/30 04:29:48;;;;;;;2.55;0.93;;;21.80;51.60;;;;;;5196574;28;20425;-72
2021/11/30 04:32:21;;;;;;;1.35;0.85;;;21.80;51.60;;;;;;5163601;28;26776;-73
2021/11/30 04:34:53;;;;;;;4.55;1.30;;;21.80;51.80;;;;;;5189255;28;20514;-71
2021/11/30 04:37:26;;;;;;;6.43;1.42;;;21.70;51.70;;;;;;5186625;28;20040;-72
2021/11/30 04:39:58;;;;;;;5.78;1.00;;;21.70;51.60;;;;;;5184132;28;20419;-71
2021/11/30 04:42:31;;;;;;;3.50;1.10;;;21.80;51.80;;;;;;5178313;28;20053;-73
2021/11/30 04:45:07;;;;;;;8.88;1.20;;;21.80;51.80;;;;;;5181276;28;20499;-71
2021/11/30 04:47:41;;;;;;;4.75;1.40;;;21.70;51.80;;;;;;5155546;28;20075;-70
2021/11/30 04:50:21;;;;;;;2.75;0.98;;;21.80;51.90;;;;;;5171348;28;20689;-72
2021/11/30 04:52:57;;;;;;;6.25;1.10;;;21.70;51.80;;;;;;5176849;28;20507;-75
2021/11/30 04:55:30;;;;;;;3.58;1.25;;;21.80;51.90;;;;;;5179141;28;20045;-74
2021/11/30 04:58:04;;;;;;;2.95;1.17;;;21.70;51.80;;;;;;5165977;28;20052;-72
2021/11/30 05:00:37;;;;;;;1.95;1.15;;;21.80;51.90;;;;;;5174595;28;20057;-73
2021/11/30 05:03:10;;;;;;;5.85;1.50;;;21.80;52.00;;;;;;5187877;28;20590;-72
2021/11/30 05:05:44;;;;;;;3.83;1.20;;;21.70;51.90;;;;;;5198555;28;20064;-72
2021/11/30 05:08:16;;;;;;;4.20;1.10;;;21.70;51.90;;;;;;5196198;28;20404;-72
2021/11/30 05:10:49;;;;;;;2.85;1.17;;;21.70;52.00;;;;;;5193858;28;20049;-71
2021/11/30 05:13:21;;;;;;;4.82;0.90;;;21.70;51.90;;;;;;5191860;28;20037;-71
2021/11/30 05:15:54;;;;;;;4.38;1.05;;;21.70;51.90;;;;;;5193659;28;20080;-73
2021/11/30 05:18:26;;;;;;;3.58;0.90;;;21.70;51.90;;;;;;5204095;28;20048;-71
2021/11/30 05:20:59;;;;;;;3.65;0.90;;;21.70;51.90;;;;;;5198942;28;20072;-72
2021/11/30 05:23:33;;;;;;;4.93;1.33;;;21.70;51.90;;;;;;5191129;28;20052;-71
2021/11/30 05:26:05;;;;;;;2.78;1.30;;;21.70;52.00;;;;;;5197098;28;20041;-72
2021/11/30 05:28:40;;;;;;;2.73;0.90;;;21.70;51.90;;;;;;5176986;28;20045;-72
2021/11/30 05:31:13;;;;;;;2.65;1.10;;;21.70;52.00;;;;;;5195320;28;20262;-71
2021/11/30 05:33:47;;;;;;;2.30;1.20;;;21.70;52.00;;;;;;5191929;28;20049;-75
2021/11/30 05:36:20;;;;;;;2.17;0.77;;;21.70;52.00;;;;;;5195918;28;20043;-71
2021/11/30 05:38:53;;;;;;;1.45;0.82;;;21.70;51.90;;;;;;5197647;28;20067;-74
2021/11/30 05:41:26;;;;;;;3.22;0.90;;;21.70;51.90;;;;;;5195933;28;21866;-72
2021/11/30 05:43:59;;;;;;;7.15;0.88;;;21.70;51.90;;;;;;5180582;28;20052;-72
2021/11/30 05:46:35;;;;;;;2.85;1.10;;;21.80;52.00;;;;;;5172390;28;20307;-71
2021/11/30 05:49:08;;;;;;;1.35;0.85;;;21.80;52.00;;;;;;5132738;28;20042;-74
2021/11/30 05:51:40;;;;;;;2.70;0.82;;;21.80;51.90;;;;;;5157543;28;20565;-72
2021/11/30 05:54:13;;;;;;;2.80;1.13;;;21.80;51.80;;;;;;5158008;28;20046;-73
2021/11/30 05:57:11;;;;;;;1.92;0.80;;;21.80;51.80;;;;;;5159715;28;20501;-74
2021/11/30 05:59:44;;;;;;;4.68;1.15;;;21.80;51.90;;;;;;5159335;28;20064;-71
2021/11/30 06:02:22;;;;;;;3.70;1.10;;;21.80;51.90;;;;;;5170117;28;20087;-71
2021/11/30 06:04:55;;;;;;;4.22;1.65;;;21.90;51.80;;;;;;5158266;28;20045;-73
2021/11/30 06:07:27;;;;;;;7.78;1.00;;;21.90;51.60;;;;;;5156952;28;20344;-74
2021/11/30 06:10:00;;;;;;;13.65;1.90;;;21.90;51.20;;;;;;5161244;28;20045;-76
2021/11/30 06:12:32;;;;;;;30.20;2.25;;;21.90;50.90;;;;;;5180720;28;20095;-74
2021/11/30 06:15:05;;;;;;;11.30;1.40;;;21.90;51.20;;;;;;5168314;28;20749;-74
2021/11/30 06:17:37;;;;;;;5.63;1.27;;;21.90;50.90;;;;;;5211067;28;20049;-75
2021/11/30 06:20:11;;;;;;;9.85;1.17;;;21.90;50.90;;;;;;5192394;28;20050;-74
2021/11/30 06:22:43;;;;;;;;;;;21.90;50.70;;;;;;5194329;28;20055;-74
2021/11/30 06:25:16;;;;;;;5.10;1.13;;;21.90;50.60;;;;;;5215288;28;19924;-74
2021/11/30 06:27:48;;;;;;;7.07;1.52;;;21.90;50.70;;;;;;5215264;28;20052;-76
2021/11/30 06:30:20;;;;;;;8.45;1.05;;;21.90;50.50;;;;;;5210788;28;20037;-74
2021/11/30 06:32:53;;;;;;;6.25;1.45;;;22.00;51.10;;;;;;5207873;28;20404;-76
2021/11/30 06:35:25;;;;;;;3.90;1.10;;;21.90;50.30;;;;;;5212170;28;20056;-74
2021/11/30 06:37:58;;;;;;;8.68;0.98;;;22.00;50.40;;;;;;5214088;28;20049;-74
2021/11/30 06:40:30;;;;;;;4.22;1.08;;;22.00;50.30;;;;;;5200672;28;20061;-75
2021/11/30 06:43:03;;;;;;;6.03;1.17;;;22.00;50.20;;;;;;5203768;28;20060;-75
2021/11/30 06:45:35;;;;;;;4.47;1.42;;;22.00;50.90;;;;;;5215012;28;20079;-76
2021/11/30 06:48:08;;;;;;;4.57;1.00;;;22.00;50.10;;;;;;5217926;28;20041;-76
2021/11/30 06:50:40;;;;;;;5.93;0.93;;;22.00;50.20;;;;;;5215595;28;20045;-75
2021/11/30 06:53:12;;;;;;;2.08;1.02;;;22.00;50.10;;;;;;5213666;28;20484;-75
2021/11/30 06:55:45;;;;;;;9.10;1.52;;;22.00;50.00;;;;;;5188007;28;20700;-76
2021/11/30 06:58:18;;;;;;;5.67;0.90;;;22.00;50.00;;;;;;5216068;28;20045;-76
2021/11/30 07:00:52;;;;;;;5.53;1.50;;;22.00;50.00;;;;;;5215145;28;20053;-75
2021/11/30 07:03:25;;;;;;;5.78;1.20;;;22.00;49.90;;;;;;5214644;28;20055;-74
2021/11/30 07:06:10;;;;;;;5.35;0.90;;;22.00;50.00;;;;;;5216866;28;20412;-75
2021/11/30 07:14:08;;;;;;;2.53;0.80;;;22.00;49.80;;;;;;5215589;28;20057;-77
2021/11/30 07:16:41;;;;;;;1.52;1.17;;;22.00;49.80;;;;;;5215770;28;20044;-75
2021/11/30 07:19:18;;;;;;;5.03;0.98;;;22.00;49.80;;;;;;5211036;28;20094;-77
2021/11/30 07:21:50;;;;;;;5.32;1.27;;;22.00;49.70;;;;;;5213499;28;20049;-75
2021/11/30 07:24:23;;;;;;;2.53;1.03;;;22.00;49.60;;;;;;5210765;28;20494;-77
2021/11/30 07:26:55;;;;;;;2.78;0.80;;;22.00;49.60;;;;;;5198779;28;20554;-76
2021/11/30 07:29:43;;;;;;;1.60;0.73;;;22.00;49.60;;;;;;5217700;28;20515;-75
2021/11/30 07:32:16;;;;;;;3.22;0.70;;;22.00;49.60;;;;;;5213699;28;20069;-75
2021/11/30 07:34:48;;;;;;;3.03;0.85;;;22.00;49.50;;;;;;5213853;28;20045;-75
2021/11/30 07:37:21;;;;;;;2.92;0.90;;;22.00;49.50;;;;;;5213704;28;20040;-74
2021/11/30 07:39:57;;;;;;;2.47;0.88;;;22.00;49.50;;;;;;5214583;28;20048;-74
2021/11/30 07:42:32;;;;;;;0.97;0.63;;;22.00;49.50;;;;;;5213311;28;20228;-75
2021/11/30 07:45:05;;;;;;;2.35;0.90;;;22.00;49.50;;;;;;5214109;28;20300;-74
2021/11/30 07:47:42;;;;;;;3.63;1.00;;;22.00;49.50;;;;;;5214926;28;20057;-75
2021/11/30 07:50:15;;;;;;;2.53;0.88;;;22.00;49.40;;;;;;5214685;28;20045;-75
2021/11/30 07:52:48;;;;;;;2.35;0.82;;;22.00;49.40;;;;;;5215300;28;20416;-75
2021/11/30 07:55:20;;;;;;;3.63;0.60;;;22.00;49.30;;;;;;5195938;28;20049;-75
2021/11/30 07:57:53;;;;;;;2.40;0.80;;;22.00;49.30;;;;;;5196845;28;20056;-74
2021/11/30 08:00:26;;;;;;;2.05;0.70;;;22.10;49.40;;;;;;5212820;28;20056;-75
2021/11/30 08:02:59;;;;;;;2.17;0.57;;;22.00;49.30;;;;;;5195844;28;20640;-74
2021/11/30 08:05:32;;;;;;;2.45;0.80;;;22.00;49.30;;;;;;5215657;28;20295;-73
2021/11/30 08:08:04;;;;;;;1.87;0.90;;;22.10;49.30;;;;;;5212119;28;20048;-73
2021/11/30 08:10:37;;;;;;;2.92;0.68;;;22.00;49.30;;;;;;5214484;28;20730;-74
2021/11/30 08:13:10;;;;;;;0.55;0.52;;;22.10;49.20;;;;;;5213635;28;20041;-76
2021/11/30 08:15:43;;;;;;;2.55;0.65;;;22.10;49.30;;;;;;5213138;28;20048;-75
2021/11/30 08:18:15;;;;;;;1.60;0.65;;;22.10;49.20;;;;;;5213197;28;20049;-77
2021/11/30 08:20:48;;;;;;;2.92;0.70;;;22.10;49.20;;;;;;5213114;28;20055;-75
2021/11/30 08:23:20;;;;;;;2.45;1.02;;;22.10;49.20;;;;;;5213798;28;20053;-75
2021/11/30 08:25:53;;;;;;;3.00;0.60;;;22.10;49.30;;;;;;5212590;28;20677;-75
2021/11/30 08:28:25;;;;;;;1.48;0.60;;;22.00;49.20;;;;;;5208149;28;20044;-76
2021/11/30 08:30:57;;;;;;;1.77;0.70;;;22.10;49.10;;;;;;5213145;28;20044;-78
2021/11/30 08:33:30;;;;;;;2.55;0.82;;;22.10;49.10;;;;;;5193064;28;20044;-75
2021/11/30 08:36:03;;;;;;;3.20;0.90;;;22.10;49.10;;;;;;5211212;28;20051;-74
2021/11/30 08:38:39;;;;;;;1.30;0.70;;;22.10;49.00;;;;;;5211459;28;20060;-76
2021/11/30 08:41:11;;;;;;;2.33;0.70;;;22.10;49.00;;;;;;5190250;28;20048;-77
2021/11/30 08:43:44;;;;;;;1.33;0.90;;;22.00;48.90;;;;;;5213609;28;20101;-76
2021/11/30 08:46:16;;;;;;;1.50;0.70;;;22.10;49.00;;;;;;5212115;28;20045;-77
2021/11/30 08:48:49;;;;;;;1.00;0.63;;;22.10;48.90;;;;;;5212922;28;20060;-75
2021/11/30 08:51:21;;;;;;;0.93;0.65;;;22.10;48.90;;;;;;5214409;28;20082;-74
2021/11/30 08:53:54;;;;;;;1.03;0.67;;;22.10;48.80;;;;;;5213544;28;20499;-76
2021/11/30 08:56:26;;;;;;;1.63;0.52;;;22.10;48.90;;;;;;5215196;28;20052;-77
2021/11/30 08:58:58;;;;;;;1.42;0.80;;;22.10;48.80;;;;;;5217275;28;20046;-76
2021/11/30 09:01:31;;;;;;;2.10;0.80;;;22.10;48.80;;;;;;5197975;28;20071;-75
2021/11/30 09:04:04;;;;;;;1.73;0.70;;;22.10;49.40;;;;;;5215861;28;20053;-75
2021/11/30 09:06:36;;;;;;;3.27;0.70;;;22.10;48.90;;;;;;5216082;28;20061;-76
2021/11/30 09:09:10;;;;;;;1.30;0.60;;;22.00;48.80;;;;;;5214372;28;20053;-75
2021/11/30 09:12:05;;;;;;;1.23;0.63;;;22.10;48.80;;;;;;5213959;28;20048;-75
2021/11/30 09:14:37;;;;;;;2.33;0.60;;;22.10;48.80;;;;;;5216133;28;20295;-75
2021/11/30 09:17:09;;;;;;;1.77;0.63;;;22.10;48.80;;;;;;5215988;28;20949;-76
2021/11/30 09:19:42;;;;;;;0.82;0.47;;;22.10;48.80;;;;;;5193285;28;20393;-75
2021/11/30 09:22:14;;;;;;;1.48;0.60;;;22.10;48.80;;;;;;5214586;28;20049;-75
2021/11/30 09:24:47;;;;;;;1.10;0.70;;;22.10;48.80;;;;;;5216507;28;20052;-75
2021/11/30 09:27:22;;;;;;;1.42;0.63;;;22.10;48.70;;;;;;5214739;28;20040;-77
2021/11/30 09:29:55;;;;;;;1.65;0.70;;;22.10;48.80;;;;;;5217165;28;20045;-75
2021/11/30 09:32:30;;;;;;;2.22;0.70;;;22.10;48.70;;;;;;5193837;28;20040;-76
2021/11/30 09:35:15;;;;;;;0.85;0.65;;;22.10;48.70;;;;;;5213336;28;20714;-77
2021/11/30 09:37:51;;;;;;;1.00;0.70;;;22.10;48.70;;;;;;5215562;28;20048;-77
2021/11/30 09:40:26;;;;;;;1.92;0.65;;;22.10;48.60;;;;;;5195692;28;20056;-76
2021/11/30 09:43:19;;;;;;;1.30;0.57;;;22.10;48.60;;;;;;5192126;28;20079;-74
2021/11/30 09:45:55;;;;;;;0.67;0.50;;;22.10;48.70;;;;;;5214749;28;20634;-75
2021/11/30 09:48:29;;;;;;;0.95;0.63;;;22.10;48.60;;;;;;5223042;22;20050;-51
2021/11/30 09:51:02;;;;;;;1.60;0.52;;;22.10;48.60;;;;;;5212623;28;20049;-53
2021/11/30 09:53:35;;;;;;;0.85;0.50;;;22.10;48.60;;;;;;5208204;28;20048;-51
2021/11/30 09:56:07;;;;;;;1.50;0.43;;;22.10;48.60;;;;;;5208497;28;20054;-51
2021/11/30 09:58:40;;;;;;;1.20;0.70;;;22.10;48.60;;;;;;5210691;28;20520;-50
2021/11/30 10:01:13;;;;;;;0.73;0.43;;;22.10;48.60;;;;;;5207722;28;20056;-53
2021/11/30 10:03:46;;;;;;;0.50;0.47;;;22.10;48.60;;;;;;5210673;28;20302;-51
2021/11/30 10:06:19;;;;;;;0.73;0.52;;;22.10;48.60;;;;;;5206147;28;20044;-48
2021/11/30 10:08:55;;;;;;;0.40;0.40;;;22.10;48.50;;;;;;5208568;28;20056;-49
2021/11/30 10:11:29;;;;;;;3.65;0.65;;;22.10;48.50;;;;;;5208412;28;20061;-48
2021/11/30 10:14:11;;;;;;;2.28;0.60;;;22.10;48.60;;;;;;5210139;28;20052;-49
2021/11/30 10:17:12;;;;;;;0.43;0.43;;;22.10;48.50;;;;;;5206475;28;20490;-50
2021/11/30 10:20:01;;;;;;;0.50;0.30;;;22.10;48.50;;;;;;5208068;28;20501;-49
2021/11/30 10:22:41;;;;;;;0.63;0.40;;;22.10;48.50;;;;;;5209661;28;20056;-48
2021/11/30 10:25:29;;;;;;;1.00;0.60;;;22.10;48.60;;;;;;5209990;28;20060;-51
2021/11/30 10:28:05;;;;;;;0.40;0.30;;;22.10;48.50;;;;;;5208620;28;20060;-47
2021/11/30 10:30:40;;;;;;;1.13;0.50;;;22.10;48.50;;;;;;5208471;28;20493;-49
2021/11/30 10:33:16;;;;;;;1.52;0.50;;;22.10;48.50;;;;;;5209297;28;20068;-45
2021/11/30 10:35:56;;;;;;;1.50;0.52;;;22.10;48.60;;;;;;5210805;28;20052;-49
2021/11/30 10:38:40;;;;;;;0.65;0.52;;;22.10;48.40;;;;;;5207864;28;20531;-45
2021/11/30 10:41:18;;;;;;;1.08;0.30;;;22.10;48.40;;;;;;5208543;28;20511;-46
2021/11/30 10:43:58;;;;;;;1.05;0.50;;;22.10;48.40;;;;;;5209300;28;20053;-50
2021/11/30 10:46:34;;;;;;;1.10;0.60;;;22.10;48.50;;;;;;5210249;28;20049;-47
2021/11/30 10:49:10;;;;;;;0.60;0.30;;;22.10;48.50;;;;;;5208584;28;20049;-45
2021/11/30 10:51:48;;;;;;;0.70;0.60;;;22.10;48.40;;;;;;5209915;28;20056;-47
2021/11/30 10:54:23;;;;;;;0.77;0.60;;;22.10;48.40;;;;;;5209457;28;20044;-49
2021/11/30 10:57:03;;;;;;;0.63;0.52;;;22.10;48.40;;;;;;5208595;28;20041;-48
2021/11/30 10:59:36;;;;;;;0.77;0.47;;;22.10;48.30;;;;;;5211764;28;20057;-49
2021/11/30 11:02:08;;;;;;;0.73;0.30;;;22.10;48.40;;;;;;5208691;28;20572;-49
2021/11/30 11:04:41;;;;;;;0.75;0.50;;;22.10;48.40;;;;;;5208774;28;20045;-45
2021/11/30 11:07:14;;;;;;;1.00;0.50;;;22.10;48.40;;;;;;5209434;28;20501;-49
2021/11/30 11:09:50;;;;;;;1.02;0.50;;;22.10;48.40;;;;;;5209937;28;20049;-49
2021/11/30 11:12:27;;;;;;;0.45;0.40;;;22.10;48.40;;;;;;5215439;28;20053;-47
2021/11/30 11:15:02;;;;;;;0.60;0.50;;;22.10;48.40;;;;;;5215515;28;20053;-48
2021/11/30 11:17:35;;;;;;;1.35;0.40;;;22.10;48.30;;;;;;5211376;28;20049;-45
2021/11/30 11:20:07;;;;;;;0.70;0.40;;;22.10;48.40;;;;;;5212058;28;20050;-49
2021/11/30 11:22:50;;;;;;;0.70;0.40;;;22.10;48.40;;;;;;5210005;28;20558;-49
2021/11/30 11:25:30;;;;;;;1.40;0.43;;;22.10;48.30;;;;;;5214538;28;20535;-51
2021/11/30 11:28:04;;;;;;;0.50;0.40;;;22.10;48.40;;;;;;5208356;28;20049;-48
2021/11/30 11:30:36;;;;;;;0.95;0.50;;;22.10;48.40;;;;;;5207404;28;20410;-45
2021/11/30 11:33:09;;;;;;;0.50;0.40;;;22.10;48.40;;;;;;5208999;28;20036;-51
2021/11/30 11:35:43;;;;;;;0.63;0.40;;;22.10;48.30;;;;;;5212361;28;20048;-49
2021/11/30 11:38:17;;;;;;;1.58;0.68;;;22.10;48.40;;;;;;5208819;28;20052;-48
2021/11/30 11:40:51;;;;;;;1.00;0.45;;;22.10;48.40;;;;;;5209917;28;20053;-46
2021/11/30 11:43:24;;;;;;;0.95;0.70;;;22.10;48.40;;;;;;5210063;28;20053;-47
2021/11/30 11:45:56;;;;;;;0.60;0.50;;;22.10;48.40;;;;;;5207077;28;20053;-49
2021/11/30 11:48:29;;;;;;;0.50;0.50;;;22.10;48.40;;;;;;5211736;28;20057;-50
2021/11/30 11:51:05;;;;;;;2.38;0.65;;;22.10;48.40;;;;;;5197435;28;20054;-45
2021/11/30 11:53:50;;;;;;;0.73;0.43;;;22.10;48.40;;;;;;5208766;28;20060;-51
2021/11/30 11:56:31;;;;;;;0.50;0.40;;;22.10;48.30;;;;;;5206793;28;20041;-49
2021/11/30 11:59:16;;;;;;;2.30;0.43;;;22.10;48.30;;;;;;5209539;28;20412;-48
2021/11/30 12:01:51;;;;;;;1.42;0.70;;;22.10;48.20;;;;;;5205570;28;20052;-50
2021/11/30 12:04:39;;;;;;;0.47;0.40;;;22.10;48.30;;;;;;5189186;28;20068;-46
2021/11/30 12:07:12;;;;;;;0.77;0.40;;;22.10;48.30;;;;;;5209595;28;20048;-47
2021/11/30 12:09:44;;;;;;;0.73;0.50;;;22.10;48.30;;;;;;5210671;28;20057;-49
2021/11/30 12:12:23;;;;;;;0.40;0.40;;;22.10;48.30;;;;;;5208880;28;20045;-45
2021/11/30 12:15:02;;;;;;;0.77;0.50;;;22.10;48.30;;;;;;5200472;28;20056;-43
2021/11/30 12:17:34;;;;;;;0.60;0.43;;;22.10;48.30;;;;;;5164737;28;20048;-47
2021/11/30 12:20:10;;;;;;;0.82;0.50;;;22.10;48.30;;;;;;5191754;28;20045;-49
2021/11/30 12:22:58;;;;;;;0.93;0.40;;;22.10;48.30;;;;;;5196005;28;20056;-45
2021/11/30 12:25:47;;;;;;;0.32;0.30;;;22.10;48.30;;;;;;5189817;28;20527;-45
2021/11/30 12:28:37;;;;;;;0.75;0.40;;;22.10;48.20;;;;;;5193758;28;20492;-44
2021/11/30 12:31:29;;;;;;;0.73;0.40;;;22.10;48.30;;;;;;5185714;28;20046;-49
2021/11/30 12:34:02;;;;;;;0.55;0.38;;;22.10;48.30;;;;;;5191730;28;20493;-45
2021/11/30 12:36:38;;;;;;;0.60;0.43;;;22.10;48.30;;;;;;5192744;28;20041;-45
2021/11/30 12:39:12;;;;;;;0.30;0.30;;;22.10;48.30;;;;;;5187780;28;20041;-51
2021/11/30 12:41:50;;;;;;;1.02;0.63;;;22.10;48.30;;;;;;5193748;28;20049;-46
2021/11/30 12:44:23;;;;;;;0.98;0.40;;;22.10;48.30;;;;;;5190072;28;20044;-46
2021/11/30 12:46:57;;;;;;;0.98;0.57;;;22.10;48.40;;;;;;5191190;28;20037;-51
2021/11/30 12:49:33;;;;;;;0.57;0.20;;;22.10;48.40;;;;;;5188465;28;20048;-46
2021/11/30 12:52:13;;;;;;;1.58;0.50;;;22.10;48.40;;;;;;5192326;28;20048;-47
2021/11/30 12:54:50;;;;;;;3.25;0.70;;;22.10;48.50;;;;;;5174129;28;20045;-47
2021/11/30 12:57:28;;;;;;;3.22;0.60;;;22.10;48.40;;;;;;5179100;28;20045;-45
2021/11/30 13:00:30;;;;;;;3.55;0.70;;;22.10;48.70;;;;;;5191762;28;20045;-49
2021/11/30 13:03:21;;;;;;;3.38;0.45;;;22.10;49.00;;;;;;5171783;28;20050;-46
2021/11/30 13:05:55;;;;;;;1.38;0.50;;;22.10;49.20;;;;;;5193589;28;20049;-47
2021/11/30 13:08:28;;;;;;;4.38;0.70;;;22.10;49.30;;;;;;5186413;28;20353;-44
2021/11/30 13:11:05;;;;;;;3.70;0.52;;;22.10;49.10;;;;;;5174378;28;20408;-46
2021/11/30 13:13:38;;;;;;;6.82;0.60;;;22.10;49.00;;;;;;5178858;28;20071;-47
2021/11/30 13:16:11;;;;;;;2.85;0.73;;;22.10;48.90;;;;;;5167077;28;20480;-45
2021/11/30 13:18:43;;;;;;;2.05;0.85;;;22.10;49.00;;;;;;5182309;28;20510;-43
2021/11/30 13:21:16;;;;;;;5.00;0.88;;;22.10;49.00;;;;;;5188971;28;20772;-47
2021/11/30 13:23:48;;;;;;;4.15;0.93;;;22.10;49.20;;;;;;5185337;28;20053;-45
2021/11/30 13:26:21;;;;;;;1.88;0.50;;;22.10;49.60;;;;;;5181006;28;20066;-46
2021/11/30 13:28:59;;;;;;;6.32;0.88;;;22.10;49.80;;;;;;5186834;28;20124;-46
2021/11/30 13:31:34;;;;;;;2.17;0.90;;;22.10;49.90;;;;;;5189535;28;20048;-46
2021/11/30 13:34:14;;;;;;;7.35;0.88;;;22.20;50.30;;;;;;5189337;28;20041;-43
2021/11/30 13:36:46;;;;;;;1.67;0.68;;;22.20;50.50;;;;;;5193933;28;20037;-44
2021/11/30 13:39:19;;;;;;;7.15;0.75;;;22.20;50.60;;;;;;5192431;28;20523;-43
2021/11/30 13:41:51;;;;;;;12.80;0.70;;;22.20;50.70;;;;;;5186400;28;20046;-43